createdAt,value
2022-09-12T00:01:46.701Z,7.73
2022-09-12T00:05:10.119Z,7.67
2022-09-12T00:08:32.818Z,7.61
2022-09-12T00:11:57.370Z,7.55
2022-09-12T00:15:20.941Z,7.51
2022-09-12T00:18:45.409Z,7.49
2022-09-12T00:22:08.199Z,7.42
2022-09-12T00:25:31.812Z,7.36
2022-09-12T00:28:56.470Z,7.32
2022-09-12T00:32:19.234Z,7.21
2022-09-12T00:35:46.722Z,7.20
2022-09-12T00:39:09.961Z,7.13
2022-09-12T00:42:33.811Z,7.10
2022-09-12T00:45:59.703Z,7.06
2022-09-12T00:49:28.843Z,7.06
2022-09-12T00:52:54.613Z,7.07
2022-09-12T00:56:19.284Z,7.08
2022-09-12T00:59:46.479Z,7.09
2022-09-12T01:03:20.819Z,7.05
2022-09-12T01:06:44.973Z,7.01
2022-09-12T01:10:09.815Z,6.99
2022-09-12T01:13:33.969Z,7.03
2022-09-12T01:16:57.023Z,6.99
2022-09-12T01:20:43.542Z,6.97
2022-09-12T01:24:35.987Z,6.94
2022-09-12T01:28:22.821Z,6.89
2022-09-12T01:31:55.417Z,6.85
2022-09-12T01:35:28.497Z,6.83
2022-09-12T01:38:56.473Z,6.79
2022-09-12T01:42:26.496Z,6.70
2022-09-12T01:45:57.983Z,6.77
2022-09-12T01:49:26.961Z,6.78
2022-09-12T01:52:54.219Z,6.78
2022-09-12T01:56:23.429Z,6.79
2022-09-12T01:59:48.828Z,6.80
2022-09-12T02:03:16.001Z,6.80
2022-09-12T02:06:47.834Z,6.80
2022-09-12T02:10:15.236Z,6.83
2022-09-12T02:13:41.982Z,6.85
2022-09-12T02:17:11.290Z,6.87
2022-09-12T02:20:47.941Z,6.81
2022-09-12T02:24:16.663Z,6.84
2022-09-12T02:27:42.840Z,6.83
2022-09-12T02:31:14.776Z,6.85
2022-09-12T02:34:51.250Z,6.85
2022-09-12T02:38:20.254Z,6.88
2022-09-12T02:41:44.545Z,6.84
2022-09-12T02:45:08.840Z,6.88
2022-09-12T02:48:36.402Z,6.94
2022-09-12T02:51:59.774Z,6.96
2022-09-12T02:55:25.088Z,6.97
2022-09-12T02:58:50.703Z,6.99
2022-09-12T03:02:28.653Z,6.91
2022-09-12T03:05:59.770Z,6.97
2022-09-12T03:09:32.847Z,7.05
2022-09-12T03:13:05.360Z,7.05
2022-09-12T03:16:37.571Z,7.10
2022-09-12T03:20:05.303Z,7.13
2022-09-12T03:23:35.014Z,7.17
2022-09-12T03:27:02.503Z,7.17
2022-09-12T03:30:25.821Z,7.19
2022-09-12T03:33:50.759Z,7.19
2022-09-12T03:37:13.617Z,7.18
2022-09-12T03:40:36.778Z,7.23
2022-09-12T03:44:00.043Z,7.25
2022-09-12T03:47:23.010Z,7.24
2022-09-12T03:50:46.996Z,7.25
2022-09-12T03:54:14.251Z,7.19
2022-09-12T03:57:37.208Z,7.25
2022-09-12T04:01:00.539Z,7.27
2022-09-12T04:04:24.055Z,7.31
2022-09-12T04:07:49.063Z,7.32
2022-09-12T04:11:15.524Z,7.33
2022-09-12T04:14:39.190Z,7.41
2022-09-12T04:18:05.753Z,7.41
2022-09-12T04:21:29.520Z,7.45
2022-09-12T04:24:53.868Z,7.47
2022-09-12T04:28:16.340Z,7.51
2022-09-12T04:31:38.868Z,7.54
2022-09-12T04:35:02.062Z,7.56
2022-09-12T04:38:25.027Z,7.60
2022-09-12T04:41:49.414Z,7.65
2022-09-12T04:45:13.501Z,7.65
2022-09-12T04:48:36.659Z,7.72
2022-09-12T04:51:59.626Z,7.73
2022-09-12T04:55:23.609Z,7.82
2022-09-12T04:58:48.584Z,7.87
2022-09-12T05:02:11.413Z,7.91
2022-09-12T05:05:37.405Z,7.97
2022-09-12T05:09:02.418Z,8.03
2022-09-12T05:12:25.059Z,8.10
2022-09-12T05:16:00.517Z,8.17
2022-09-12T05:19:23.779Z,8.29
2022-09-12T05:22:47.054Z,8.35
2022-09-12T05:26:10.881Z,8.38
2022-09-12T05:29:34.713Z,8.42
2022-09-12T05:32:59.240Z,8.47
2022-09-12T05:36:27.077Z,8.51
2022-09-12T05:39:50.505Z,8.59
2022-09-12T05:43:14.026Z,8.65
2022-09-12T05:46:39.650Z,8.75
2022-09-12T05:50:11.225Z,8.82
2022-09-12T05:53:34.067Z,8.90
2022-09-12T05:56:57.673Z,8.98
2022-09-12T06:00:21.210Z,9.03
2022-09-12T06:03:46.847Z,9.16
2022-09-12T06:07:11.337Z,9.25
2022-09-12T06:10:35.895Z,9.24
2022-09-12T06:14:00.542Z,9.34
2022-09-12T06:17:23.594Z,9.38
2022-09-12T06:20:46.558Z,9.46
2022-09-12T06:24:11.352Z,9.48
2022-09-12T06:27:34.115Z,9.65
2022-09-12T06:31:06.528Z,9.76
2022-09-12T06:34:29.553Z,9.84
2022-09-12T06:37:52.405Z,9.97
2022-09-12T06:41:17.525Z,10.02
2022-09-12T06:44:40.385Z,10.11
2022-09-12T06:48:03.905Z,10.17
2022-09-12T06:51:27.122Z,10.16
2022-09-12T06:54:50.278Z,10.29
2022-09-12T06:58:15.289Z,10.42
2022-09-12T07:01:38.639Z,10.53
2022-09-12T07:05:01.722Z,10.61
2022-09-12T07:08:25.092Z,10.62
2022-09-12T07:11:48.867Z,10.73
2022-09-12T07:15:14.911Z,10.83
2022-09-12T07:18:39.296Z,10.89
2022-09-12T07:22:02.458Z,10.96
2022-09-12T07:25:25.918Z,11.03
2022-09-12T07:28:53.915Z,11.10
2022-09-12T07:32:18.301Z,11.16
2022-09-12T07:35:41.067Z,11.29
2022-09-12T07:39:04.324Z,11.44
2022-09-12T07:42:27.285Z,11.72
2022-09-12T07:45:50.492Z,11.91
2022-09-12T07:49:15.557Z,12.03
2022-09-12T07:52:38.517Z,12.06
2022-09-12T07:56:03.330Z,12.08
2022-09-12T07:59:48.813Z,12.09
2022-09-12T08:03:12.074Z,12.19
2022-09-12T08:06:37.702Z,12.24
2022-09-12T08:10:00.974Z,12.24
2022-09-12T08:13:25.049Z,12.31
2022-09-12T08:16:48.635Z,12.45
2022-09-12T08:20:12.710Z,12.61
2022-09-12T08:23:36.797Z,12.64
2022-09-12T08:26:59.453Z,12.55
2022-09-12T08:30:22.409Z,12.61
2022-09-12T08:33:45.141Z,12.66
2022-09-12T08:37:07.817Z,12.77
2022-09-12T08:40:32.519Z,12.88
2022-09-12T08:44:30.090Z,12.93
2022-09-12T08:47:53.873Z,13.00
2022-09-12T08:51:20.928Z,13.04
2022-09-12T08:54:46.761Z,13.05
2022-09-12T08:58:17.498Z,13.07
2022-09-12T09:01:45.984Z,13.12
2022-09-12T09:05:20.724Z,13.23
2022-09-12T09:08:58.941Z,13.33
2022-09-12T09:12:28.149Z,13.36
2022-09-12T09:16:02.613Z,13.33
2022-09-12T09:19:30.155Z,13.27
2022-09-12T09:22:57.302Z,13.16
2022-09-12T09:26:27.119Z,13.14
2022-09-12T09:29:55.719Z,13.35
2022-09-12T09:33:23.697Z,13.38
2022-09-12T09:36:52.703Z,13.50
2022-09-12T09:40:23.985Z,13.66
2022-09-12T09:43:47.330Z,13.57
2022-09-12T09:47:14.580Z,13.56
2022-09-12T09:50:39.392Z,13.54
2022-09-12T09:54:12.902Z,13.53
2022-09-12T09:57:47.956Z,13.60
2022-09-12T10:01:17.763Z,13.66
2022-09-12T10:04:43.889Z,13.69
2022-09-12T10:08:09.728Z,13.70
2022-09-12T10:11:34.960Z,13.67
2022-09-12T10:15:01.269Z,13.69
2022-09-12T10:18:36.848Z,13.80
2022-09-12T10:22:01.319Z,13.81
2022-09-12T10:25:32.909Z,13.76
2022-09-12T10:28:58.088Z,13.61
2022-09-12T10:32:31.606Z,13.41
2022-09-12T10:35:56.091Z,13.48
2022-09-12T10:39:21.828Z,13.50
2022-09-12T10:42:49.905Z,13.43
2022-09-12T10:46:33.854Z,13.50
2022-09-12T10:50:22.597Z,13.56
2022-09-12T10:53:48.236Z,13.55
2022-09-12T10:57:38.646Z,13.62
2022-09-12T11:01:10.535Z,13.65
2022-09-12T11:04:49.753Z,13.51
2022-09-12T11:08:21.011Z,13.48
2022-09-12T11:11:55.750Z,13.46
2022-09-12T11:15:34.632Z,13.34
2022-09-12T11:19:15.457Z,13.38
2022-09-12T11:23:02.975Z,13.40
2022-09-12T11:26:36.701Z,13.44
2022-09-12T11:30:01.540Z,13.52
2022-09-12T11:33:42.984Z,13.64
2022-09-12T11:37:28.696Z,13.74
2022-09-12T11:40:56.372Z,13.75
2022-09-12T11:44:24.851Z,13.68
2022-09-12T11:47:53.759Z,13.68
2022-09-12T11:51:21.840Z,13.66
2022-09-12T11:54:53.483Z,13.58
2022-09-12T11:58:19.116Z,13.53
2022-09-12T12:01:48.563Z,13.45
2022-09-12T12:05:22.854Z,13.38
2022-09-12T12:08:47.724Z,13.39
2022-09-12T12:12:21.168Z,13.43
2022-09-12T12:15:49.099Z,13.35
2022-09-12T12:19:33.307Z,13.37
2022-09-12T12:22:57.186Z,13.50
2022-09-12T12:26:57.940Z,13.53
2022-09-12T12:31:03.760Z,13.51
2022-09-12T12:34:34.232Z,13.47
2022-09-12T12:37:59.851Z,13.40
2022-09-12T12:41:55.175Z,13.31
2022-09-12T12:45:50.045Z,13.31
2022-09-12T12:49:21.133Z,13.28
2022-09-12T12:52:52.177Z,13.26
2022-09-12T12:56:36.146Z,13.26
2022-09-12T13:00:07.229Z,13.25
2022-09-12T13:03:32.808Z,13.20
2022-09-12T13:07:07.134Z,13.21
2022-09-12T13:10:33.570Z,13.20
2022-09-12T13:14:02.127Z,13.27
2022-09-12T13:17:38.013Z,13.28
2022-09-12T13:21:12.150Z,13.27
2022-09-12T13:24:45.160Z,13.16
2022-09-12T13:28:19.675Z,13.10
2022-09-12T13:31:47.227Z,13.06
2022-09-12T13:35:20.151Z,13.04
2022-09-12T13:38:55.176Z,12.96
2022-09-12T13:42:41.001Z,12.99
2022-09-12T13:46:05.490Z,13.00
2022-09-12T13:49:36.055Z,12.97
2022-09-12T13:53:07.157Z,12.99
2022-09-12T13:56:32.171Z,12.93
2022-09-12T13:59:58.015Z,12.84
2022-09-12T14:03:50.960Z,12.82
2022-09-12T14:07:17.917Z,12.72
2022-09-12T14:10:44.048Z,12.62
2022-09-12T14:14:18.984Z,12.60
2022-09-12T14:17:52.700Z,12.53
2022-09-12T14:21:32.148Z,12.51
2022-09-12T14:24:56.434Z,12.46
2022-09-12T14:28:23.647Z,12.45
2022-09-12T14:31:47.169Z,12.41
2022-09-12T14:35:21.700Z,12.41
2022-09-12T14:38:49.163Z,12.37
2022-09-12T14:42:17.155Z,12.32
2022-09-12T14:45:40.203Z,12.24
2022-09-12T14:49:11.039Z,12.26
2022-09-12T14:52:36.030Z,12.25
2022-09-12T14:56:09.568Z,12.27
2022-09-12T14:59:38.671Z,12.27
2022-09-12T15:03:27.027Z,12.30
2022-09-12T15:06:49.785Z,12.24
2022-09-12T15:10:22.677Z,12.25
2022-09-12T15:13:45.582Z,12.25
2022-09-12T15:17:08.402Z,12.27
2022-09-12T15:20:35.237Z,12.29
2022-09-12T15:24:04.245Z,12.23
2022-09-12T15:27:27.921Z,12.17
2022-09-12T15:30:52.976Z,12.12
2022-09-12T15:34:15.882Z,12.13
2022-09-12T15:37:41.044Z,12.13
2022-09-12T15:41:03.757Z,12.10
2022-09-12T15:44:26.512Z,12.07
2022-09-12T15:47:49.471Z,12.05
2022-09-12T15:51:15.551Z,12.04
2022-09-12T15:54:40.792Z,12.02
2022-09-12T15:58:07.000Z,11.97
2022-09-12T16:01:31.082Z,11.97
2022-09-12T16:04:55.229Z,11.95
2022-09-12T16:08:18.179Z,11.92
2022-09-12T16:11:43.501Z,11.90
2022-09-12T16:15:07.177Z,11.89
2022-09-12T16:18:30.752Z,11.86
2022-09-12T16:21:53.465Z,11.85
2022-09-12T16:25:17.797Z,11.83
2022-09-12T16:28:42.088Z,11.77
2022-09-12T16:32:06.055Z,11.75
2022-09-12T16:35:29.235Z,11.70
2022-09-12T16:38:54.245Z,11.70
2022-09-12T16:42:18.224Z,11.60
2022-09-12T16:45:43.853Z,11.58
2022-09-12T16:49:07.726Z,11.56
2022-09-12T16:52:31.924Z,11.56
2022-09-12T16:55:54.670Z,11.54
2022-09-12T16:59:17.743Z,11.55
2022-09-12T17:02:42.047Z,11.51
2022-09-12T17:06:08.260Z,11.49
2022-09-12T17:09:31.017Z,11.46
2022-09-12T17:12:53.873Z,11.44
2022-09-12T17:16:16.736Z,11.39
2022-09-12T17:19:41.067Z,11.35
2022-09-12T17:23:07.666Z,11.36
2022-09-12T17:26:32.470Z,11.36
2022-09-12T17:29:55.595Z,11.35
2022-09-12T17:33:19.215Z,11.32
2022-09-12T17:36:44.936Z,11.22
2022-09-12T17:40:08.254Z,11.22
2022-09-12T17:43:31.982Z,11.18
2022-09-12T17:46:55.250Z,11.20
2022-09-12T17:50:31.339Z,11.19
2022-09-12T17:54:03.702Z,11.21
2022-09-12T17:57:26.869Z,11.19
2022-09-12T18:01:06.409Z,11.16
2022-09-12T18:04:30.212Z,11.08
2022-09-12T18:07:54.798Z,11.05
2022-09-12T18:11:19.702Z,10.99
2022-09-12T18:14:43.081Z,11.04
2022-09-12T18:18:07.052Z,10.99
2022-09-12T18:21:31.138Z,11.01
2022-09-12T18:24:54.502Z,11.01
2022-09-12T18:28:19.725Z,11.00
2022-09-12T18:31:42.475Z,10.98
2022-09-12T18:35:05.119Z,10.96
2022-09-12T18:38:27.884Z,10.94
2022-09-12T18:41:50.951Z,10.90
2022-09-12T18:45:15.235Z,10.92
2022-09-12T18:48:39.016Z,10.95
2022-09-12T18:52:01.785Z,10.96
2022-09-12T18:55:25.037Z,10.94
2022-09-12T18:58:52.709Z,10.92
2022-09-12T19:02:18.837Z,10.92
2022-09-12T19:05:41.695Z,10.92
2022-09-12T19:09:07.750Z,10.92
2022-09-12T19:12:33.559Z,10.89
2022-09-12T19:15:56.560Z,10.90
2022-09-12T19:19:21.941Z,10.92
2022-09-12T19:22:44.896Z,10.92
2022-09-12T19:26:09.906Z,10.86
2022-09-12T19:29:32.558Z,10.89
2022-09-12T19:32:55.309Z,10.86
2022-09-12T19:36:43.708Z,10.85
2022-09-12T19:40:05.353Z,10.85
2022-09-12T19:43:28.982Z,10.82
2022-09-12T19:46:51.728Z,10.78
2022-09-12T19:50:14.791Z,10.77
2022-09-12T19:53:40.004Z,10.77
2022-09-12T19:57:05.562Z,10.76
2022-09-12T20:00:28.886Z,10.74
2022-09-12T20:03:54.312Z,10.75
2022-09-12T20:07:17.370Z,10.76
2022-09-12T20:10:41.566Z,10.77
2022-09-12T20:14:04.720Z,10.75
2022-09-12T20:17:28.396Z,10.74
2022-09-12T20:20:54.223Z,10.72
2022-09-12T20:24:23.951Z,10.70
2022-09-12T20:27:48.446Z,10.73
2022-09-12T20:31:24.561Z,10.74
2022-09-12T20:34:48.911Z,10.72
2022-09-12T20:38:12.069Z,10.71
2022-09-12T20:41:37.178Z,10.73
2022-09-12T20:45:01.772Z,10.73
2022-09-12T20:48:24.424Z,10.69
2022-09-12T20:51:48.819Z,10.71
2022-09-12T20:55:12.715Z,10.69
2022-09-12T20:58:39.363Z,10.67
2022-09-12T21:02:07.742Z,10.67
2022-09-12T21:05:31.005Z,10.65
2022-09-12T21:08:54.061Z,10.63
2022-09-12T21:12:17.134Z,10.60
2022-09-12T21:15:40.446Z,10.58
2022-09-12T21:19:04.785Z,10.59
2022-09-12T21:22:27.955Z,10.57
2022-09-12T21:25:52.705Z,10.57
2022-09-12T21:29:15.637Z,10.51
2022-09-12T21:32:39.492Z,10.53
2022-09-12T21:36:05.832Z,10.53
2022-09-12T21:39:28.798Z,10.52
2022-09-12T21:42:52.168Z,10.51
2022-09-12T21:46:15.394Z,10.50
2022-09-12T21:49:38.292Z,10.50
2022-09-12T21:53:02.787Z,10.50
2022-09-12T21:56:25.741Z,10.51
2022-09-12T21:59:48.609Z,10.48
2022-09-12T22:03:12.084Z,10.46
2022-09-12T22:06:35.243Z,10.41
2022-09-12T22:09:59.326Z,10.41
2022-09-12T22:13:22.076Z,10.40
2022-09-12T22:16:45.040Z,10.34
2022-09-12T22:20:08.718Z,10.28
2022-09-12T22:23:48.362Z,10.30
2022-09-12T22:27:16.140Z,10.30
2022-09-12T22:30:39.102Z,10.29
2022-09-12T22:34:02.262Z,10.28
2022-09-12T22:37:25.739Z,10.24
2022-09-12T22:40:48.488Z,10.25
2022-09-12T22:44:13.190Z,10.21
2022-09-12T22:47:36.652Z,10.21
2022-09-12T22:50:59.429Z,10.16
2022-09-12T22:54:22.887Z,10.14
2022-09-12T22:57:45.761Z,10.13
2022-09-12T23:01:10.812Z,10.13
2022-09-12T23:04:34.742Z,10.09
2022-09-12T23:07:57.395Z,10.15
2022-09-12T23:11:22.708Z,10.12
2022-09-12T23:14:46.796Z,10.13
2022-09-12T23:18:11.393Z,10.16
2022-09-12T23:21:34.563Z,10.17
2022-09-12T23:24:57.218Z,10.16
2022-09-12T23:28:20.377Z,10.13
2022-09-12T23:31:42.955Z,10.12
2022-09-12T23:35:08.544Z,10.09
2022-09-12T23:38:32.736Z,10.09
2022-09-12T23:41:56.211Z,10.09
2022-09-12T23:45:18.959Z,10.07
2022-09-12T23:48:42.609Z,10.06
2022-09-12T23:52:07.241Z,10.05
2022-09-12T23:55:30.407Z,10.02
2022-09-12T23:58:53.262Z,9.99
